createdAt,value
2022-09-06T00:04:56.491Z,102626.59
2022-09-06T00:09:59.597Z,102623.41
2022-09-06T00:20:35.907Z,102625.75
2022-09-06T00:25:39.937Z,102626.28
2022-09-06T00:30:42.774Z,102619.69
2022-09-06T00:35:51.091Z,102628.53
2022-09-06T00:40:54.315Z,102632.50
2022-09-06T00:45:58.463Z,102628.66
2022-09-06T00:51:11.533Z,102622.72
2022-09-06T01:07:04.494Z,102613.34
2022-09-06T01:12:23.503Z,102605.63
2022-09-06T01:17:36.788Z,102608.28
2022-09-06T01:23:04.788Z,102611.16
2022-09-06T01:28:40.927Z,102603.72
2022-09-06T01:33:55.450Z,102610.63
2022-09-06T01:38:58.261Z,102608.00
2022-09-06T01:44:01.251Z,102607.09
2022-09-06T01:49:30.660Z,102608.91
2022-09-06T02:00:19.549Z,102600.03
2022-09-06T02:10:52.842Z,102618.66
2022-09-06T02:16:02.625Z,102622.56
2022-09-06T02:21:08.600Z,102616.78
2022-09-06T02:26:24.557Z,102615.47
2022-09-06T02:31:31.532Z,102613.97
2022-09-06T02:36:37.802Z,102616.63
2022-09-06T02:47:08.689Z,102624.75
2022-09-06T02:52:11.628Z,102631.72
2022-09-06T02:57:14.999Z,102621.84
2022-09-06T03:02:23.109Z,102622.63
2022-09-06T03:07:26.042Z,102623.19
2022-09-06T03:12:29.099Z,102627.16
2022-09-06T03:17:37.389Z,102619.50
2022-09-06T03:27:59.018Z,102618.06
2022-09-06T03:33:02.913Z,102617.69
2022-09-06T03:38:07.949Z,102615.69
2022-09-06T03:43:18.059Z,102604.66
2022-09-06T03:48:22.939Z,102605.00
2022-09-06T03:53:30.206Z,102602.84
2022-09-06T03:58:39.167Z,102601.50
2022-09-06T04:03:42.358Z,102601.03
2022-09-06T04:14:07.831Z,102585.44
2022-09-06T04:19:11.679Z,102590.31
2022-09-06T04:24:15.703Z,102594.47
2022-09-06T04:29:24.672Z,102586.47
2022-09-06T04:34:27.838Z,102583.53
2022-09-06T04:39:30.681Z,102574.84
2022-09-06T04:44:39.599Z,102577.56
2022-09-06T04:49:42.449Z,102577.56
2022-09-06T04:54:45.444Z,102578.97
2022-09-06T04:59:53.712Z,102574.34
2022-09-06T05:04:56.495Z,102583.41
2022-09-06T05:09:59.269Z,102582.56
2022-09-06T05:15:08.417Z,102577.94
2022-09-06T05:20:12.330Z,102580.31
2022-09-06T05:25:15.280Z,102571.19
2022-09-06T05:30:26.838Z,102570.09
2022-09-06T05:35:29.860Z,102564.16
2022-09-06T05:40:32.942Z,102572.09
2022-09-06T05:45:41.373Z,102569.28
2022-09-06T05:50:45.212Z,102576.38
2022-09-06T05:55:48.599Z,102579.00
2022-09-06T06:01:06.324Z,102573.19
2022-09-06T06:06:15.715Z,102576.09
2022-09-06T06:16:43.330Z,102577.44
2022-09-06T06:21:46.514Z,102579.22
2022-09-06T06:26:49.962Z,102572.25
2022-09-06T06:31:58.132Z,102575.44
2022-09-06T06:37:00.976Z,102571.28
2022-09-06T06:47:25.790Z,102559.81
2022-09-06T06:57:50.464Z,102554.25
2022-09-06T07:02:53.479Z,102554.31
2022-09-06T07:13:21.823Z,102544.38
2022-09-06T07:18:25.125Z,102551.59
2022-09-06T07:29:00.021Z,102555.66
2022-09-06T07:34:03.408Z,102553.56
2022-09-06T07:39:06.213Z,102548.47
2022-09-06T07:44:14.277Z,102550.56
2022-09-06T07:54:39.482Z,102547.50
2022-09-06T07:59:43.025Z,102544.69
2022-09-06T08:04:51.036Z,102535.66
2022-09-06T08:09:59.804Z,102539.53
2022-09-06T08:15:05.764Z,102538.44
2022-09-06T08:20:09.291Z,102533.56
2022-09-06T08:30:30.857Z,102518.06
2022-09-06T08:35:33.650Z,102521.37
2022-09-06T08:40:36.446Z,102521.81
2022-09-06T08:45:46.928Z,102517.78
2022-09-06T08:51:00.808Z,102520.56
2022-09-06T08:56:13.314Z,102496.53
2022-09-06T09:01:28.901Z,102500.25
2022-09-06T09:06:33.699Z,102500.38
2022-09-06T09:11:37.568Z,102487.50
2022-09-06T09:16:47.175Z,102476.91
2022-09-06T09:21:50.535Z,102483.97
2022-09-06T09:26:59.731Z,102476.03
2022-09-06T09:37:46.276Z,102464.09
2022-09-06T09:48:28.247Z,102462.44
2022-09-06T09:53:32.181Z,102455.28
2022-09-06T09:58:37.340Z,102453.34
2022-09-06T10:15:06.969Z,102427.59
2022-09-06T10:20:13.317Z,102423.13
2022-09-06T10:25:48.976Z,102418.81
2022-09-06T10:31:08.911Z,102417.06
2022-09-06T10:36:12.919Z,102414.13
2022-09-06T10:41:32.968Z,102413.66
2022-09-06T10:46:46.463Z,102412.97
2022-09-06T10:51:53.464Z,102399.87
2022-09-06T10:57:00.523Z,102399.50
2022-09-06T11:02:20.433Z,102395.53
2022-09-06T11:07:30.677Z,102391.78
2022-09-06T11:18:08.813Z,102384.72
2022-09-06T11:23:54.181Z,102384.19
2022-09-06T11:29:06.749Z,102384.56
2022-09-06T11:34:23.497Z,102374.56
2022-09-06T11:45:14.280Z,102361.75
2022-09-06T11:51:02.803Z,102353.09
2022-09-06T11:56:24.441Z,102339.41
2022-09-06T12:01:41.043Z,102341.63
2022-09-06T12:07:10.080Z,102338.31
2022-09-06T12:12:16.877Z,102329.91
2022-09-06T12:17:23.367Z,102323.50
2022-09-06T12:23:02.749Z,102324.63
2022-09-06T12:28:21.959Z,102316.00
2022-09-06T12:33:30.800Z,102313.47
2022-09-06T12:44:02.004Z,102309.84
2022-09-06T12:49:08.203Z,102303.97
2022-09-06T12:54:22.885Z,102295.00
2022-09-06T13:04:50.406Z,102287.72
2022-09-06T13:15:24.783Z,102273.78
2022-09-06T13:36:51.115Z,102264.81
2022-09-06T13:41:58.060Z,102253.06
2022-09-06T13:47:01.278Z,102248.56
2022-09-06T13:52:11.548Z,102244.59
2022-09-06T13:57:14.385Z,102245.62
2022-09-06T14:07:39.907Z,102246.34
2022-09-06T14:12:42.704Z,102247.94
2022-09-06T14:17:45.500Z,102235.66
2022-09-06T14:22:53.771Z,102226.41
2022-09-06T14:27:57.161Z,102230.56
2022-09-06T14:33:00.367Z,102234.34
2022-09-06T14:38:15.950Z,102228.78
2022-09-06T14:43:18.986Z,102213.72
2022-09-06T14:53:47.691Z,102206.75
2022-09-06T14:58:51.191Z,102198.34
2022-09-06T15:03:56.641Z,102207.72
2022-09-06T15:25:32.575Z,102190.84
2022-09-06T15:30:35.580Z,102188.19
2022-09-06T15:35:39.422Z,102191.72
2022-09-06T15:40:47.709Z,102185.34
2022-09-06T15:51:15.021Z,102169.37
2022-09-06T15:56:18.926Z,102169.47
2022-09-06T16:01:23.657Z,102163.94
2022-09-06T16:06:34.425Z,102160.75
2022-09-06T16:27:43.019Z,102153.88
2022-09-06T16:32:46.222Z,102156.31
2022-09-06T16:37:49.018Z,102146.84
2022-09-06T16:42:57.276Z,102144.69
2022-09-06T16:58:40.963Z,102128.31
2022-09-06T17:03:44.036Z,102132.88
2022-09-06T17:08:48.500Z,102122.13
2022-09-06T17:13:59.512Z,102125.88
2022-09-06T17:19:03.003Z,102127.63
2022-09-06T17:24:10.399Z,102125.06
2022-09-06T17:34:41.836Z,102122.66
2022-09-06T17:45:09.931Z,102125.53
2022-09-06T17:50:12.726Z,102126.22
2022-09-06T17:55:15.572Z,102127.16
2022-09-06T18:00:24.044Z,102124.63
2022-09-06T18:05:26.904Z,102127.81
2022-09-06T18:10:29.773Z,102135.13
2022-09-06T18:15:40.647Z,102130.88
2022-09-06T18:26:05.111Z,102133.88
2022-09-06T18:31:10.051Z,102128.63
2022-09-06T18:36:15.429Z,102126.03
2022-09-06T18:41:24.467Z,102134.00
2022-09-06T18:46:28.878Z,102127.34
2022-09-06T18:57:37.788Z,102130.25
2022-09-06T19:02:40.749Z,102126.38
2022-09-06T19:07:43.781Z,102130.72
2022-09-06T19:12:53.531Z,102128.47
2022-09-06T19:17:57.114Z,102124.56
2022-09-06T19:23:01.110Z,102125.94
2022-09-06T19:28:09.397Z,102124.50
2022-09-06T19:33:12.364Z,102125.63
2022-09-06T19:43:42.040Z,102106.00
2022-09-06T19:48:46.920Z,102103.97
2022-09-06T19:59:16.679Z,102094.53
2022-09-06T20:04:20.050Z,102090.38
2022-09-06T20:09:23.067Z,102085.78
2022-09-06T20:14:31.361Z,102093.00
2022-09-06T20:19:34.308Z,102093.88
2022-09-06T20:24:38.003Z,102085.88
2022-09-06T20:29:50.479Z,102081.28
2022-09-06T20:34:54.252Z,102084.69
2022-09-06T20:39:58.020Z,102097.63
2022-09-06T20:45:08.728Z,102091.91
2022-09-06T20:50:11.726Z,102071.66
2022-09-06T20:55:15.364Z,102067.00
2022-09-06T21:00:24.385Z,102073.38
2022-09-06T21:05:27.129Z,102077.44
2022-09-06T21:10:29.912Z,102065.62
2022-09-06T21:15:42.104Z,102067.13
2022-09-06T21:20:45.843Z,102056.75
2022-09-06T21:25:53.627Z,102055.06
2022-09-06T21:36:33.452Z,102036.69
2022-09-06T21:41:40.008Z,102032.91
2022-09-06T21:46:43.647Z,102034.00
2022-09-06T21:51:52.995Z,102035.47
2022-09-06T21:56:55.894Z,102036.16
2022-09-06T22:12:43.286Z,102030.66
2022-09-06T22:17:47.030Z,102027.13
2022-09-06T22:22:51.489Z,102023.53
2022-09-06T22:33:15.660Z,102008.97
2022-09-06T22:38:19.613Z,102006.63
2022-09-06T22:43:23.118Z,102001.38
2022-09-06T22:59:19.797Z,101983.00
2022-09-06T23:09:49.816Z,101977.97
2022-09-06T23:20:13.832Z,101965.50
2022-09-06T23:25:16.760Z,101976.03
2022-09-06T23:30:19.946Z,101969.28
2022-09-06T23:35:28.674Z,101965.28
2022-09-06T23:40:31.427Z,101947.53
2022-09-06T23:50:57.930Z,101952.84
2022-09-06T23:56:00.983Z,101955.78
